Venus Spirit — A8YD8 — position and weather

sailwx.info

Track history (hours):
 
Tides and Currents Weather Stations Pressure Air Temp Water Temp Dewpoint Dewpoint Depression Visibility Wind Speed Wind Dir Waves Ship Positions

Venus Spirit

Last reported at 2018-Feb-20 13:05 UTC. Time now 2018-Feb-21 07:43 UTC.
Position N 33°38' W 121°17'.

Length 183 m; draft 7.7 m.

Type: Cargo ship. MMSI: 636015032.

Date/timePositionNaut miles runAvg speedWind from/ knotsBaromVisibWave heightAir tempDewpointWater temp
2018-Feb-20 13:05N 33°38' W 121°17'115.6
2018-Feb-20 12:59N 33°38' W 121°15'715.2
2018-Feb-20 12:30N 33°38' W 121°06'815.1
2018-Feb-20 12:00N 33°38' W 120°57'815.4
2018-Feb-20 11:30N 33°38' W 120°48'815.7
2018-Feb-20 11:00N 33°38' W 120°38'815.9
2018-Feb-20 10:30N 33°38' W 120°29'816.2
2018-Feb-20 10:00N 33°38' W 120°19'816.3
2018-Feb-20 09:30N 33°38' W 120°09'917.8
2018-Feb-20 09:00N 33°38' W 119°58'918.2
2018-Feb-20 08:30N 33°38' W 119°47'918.5
2018-Feb-20 08:00N 33°38' W 119°36'918.4
2018-Feb-20 07:30N 33°38' W 119°25'917.1
2018-Feb-20 07:01N 33°38' W 119°15'815.6
2018-Feb-20 06:30N 33°38' W 119°06'611.5
2018-Feb-20 06:00N 33°39' W 118°59'611.5
2018-Feb-20 05:30N 33°38' W 118°52'611.3
2018-Feb-20 05:00N 33°38' W 118°45'611.3
2018-Feb-20 04:30N 33°38' W 118°38'1910.5
2018-Feb-20 02:43N 33°40' W 118°16'2 9.0
2018-Feb-20 02:30N 33°42' W 118°15'3 6.0
2018-Feb-20 02:00N 33°44' W 118°17'2 3.9
2018-Feb-20 01:30N 33°46' W 118°15'0 0.0
2018-Feb-20 01:00N 33°46' W 118°15'0 0.0
2018-Feb-20 00:30N 33°46' W 118°15'0 0.0
2018-Feb-20 00:00N 33°46' W 118°15'0 0.0
2018-Feb-19 23:30N 33°46' W 118°15'0 0.0
2018-Feb-19 23:00N 33°46' W 118°15'0 0.0
2018-Feb-19 22:30N 33°46' W 118°15'0 0.0
2018-Feb-19 22:00N 33°46' W 118°15'0 0.0
2018-Feb-19 21:24N 33°46' W 118°15'0 0.0
2018-Feb-19 21:00N 33°46' W 118°15'0 0.0
2018-Feb-19 20:30N 33°46' W 118°15'0 0.0
2018-Feb-19 20:00N 33°46' W 118°15'0 0.0
2018-Feb-19 19:30N 33°46' W 118°15'0 0.0
2018-Feb-19 19:00N 33°46' W 118°15'0 0.0
2018-Feb-19 18:30N 33°46' W 118°15'0 0.0
2018-Feb-19 18:00N 33°46' W 118°15'0 0.0
2018-Feb-19 17:30N 33°46' W 118°15'0 0.0
2018-Feb-19 17:00N 33°46' W 118°15'0 0.0
2018-Feb-19 16:30N 33°46' W 118°15'0 0.0
2018-Feb-19 16:00N 33°46' W 118°15'0 0.0
2018-Feb-19 15:30N 33°46' W 118°15'0 0.0
2018-Feb-19 15:00N 33°46' W 118°15'0 0.0
2018-Feb-19 14:30N 33°46' W 118°15'0 0.0
2018-Feb-19 14:00N 33°46' W 118°15'0 0.0
2018-Feb-19 13:30N 33°46' W 118°15'0 0.0
2018-Feb-19 13:00N 33°46' W 118°15'0 0.0
2018-Feb-19 12:30N 33°46' W 118°15'0 0.0
2018-Feb-19 12:00N 33°46' W 118°15'0 0.0
2018-Feb-19 11:30N 33°46' W 118°15'0 0.0
2018-Feb-19 11:00N 33°46' W 118°15'0 0.0
2018-Feb-19 10:30N 33°46' W 118°15'0 0.0
2018-Feb-19 10:00N 33°46' W 118°15'0 0.0
2018-Feb-19 09:30N 33°46' W 118°15'0 0.0
2018-Feb-19 09:00N 33°46' W 118°15'0 0.0
2018-Feb-19 08:24N 33°46' W 118°15'0 0.0
2018-Feb-19 08:00N 33°46' W 118°15'0 0.0
2018-Feb-19 07:27N 33°46' W 118°15'0 0.0
2018-Feb-19 07:00N 33°46' W 118°15'0 0.0
2018-Feb-19 06:30N 33°46' W 118°15'0 0.5
2018-Feb-19 06:01N 33°46' W 118°15'2 3.6
2018-Feb-19 05:30N 33°44' W 118°17'3 5.6
2018-Feb-19 05:00N 33°42' W 118°14'10 7.1
2018-Feb-19 03:39N 33°36' W 118°24'211.7
2018-Feb-19 03:30N 33°36' W 118°26'611.5
2018-Feb-19 03:00N 33°36' W 118°33'510.9
2018-Feb-19 02:30N 33°37' W 118°39'510.9
2018-Feb-19 02:00N 33°37' W 118°46'511.0
2018-Feb-19 01:30N 33°37' W 118°52'611.2
2018-Feb-19 01:00N 33°37' W 118°59'611.5
2018-Feb-19 00:30N 33°37' W 119°06'611.6
2018-Feb-19 00:00N 33°37' W 119°13'611.7
2018-Feb-18 23:30N 33°37' W 119°20'611.6
2018-Feb-18 23:00N 33°37' W 119°27'611.2
2018-Feb-18 22:29N 33°37' W 119°34'510.9
2018-Feb-18 22:00N 33°37' W 119°40'510.3
2018-Feb-18 21:29N 33°37' W 119°47'510.8
2018-Feb-18 20:59N 33°37' W 119°53'511.3
2018-Feb-18 20:30N 33°38' W 119°60'510.8
2018-Feb-18 20:00N 33°37' W 120°06'611.1
2018-Feb-18 19:30N 33°37' W 120°13'611.4
2018-Feb-18 18:59N 33°37' W 120°20'611.4
2018-Feb-18 18:30N 33°37' W 120°26'611.4
2018-Feb-18 18:00N 33°38' W 120°33'611.0
2018-Feb-18 17:30N 33°38' W 120°40'611.4
2018-Feb-18 17:00N 33°39' W 120°47'5 9.5
2018-Feb-18 16:30N 33°38' W 120°52'4 8.7
2018-Feb-18 16:00N 33°38' W 120°58'611.6
2018-Feb-18 15:30N 33°38' W 121°05'712.4
2018-Feb-18 14:59N 33°38' W 121°12'612.4
2018-Feb-18 14:30N 33°38' W 121°19'611.6
2018-Feb-18 14:00N 33°39' W 121°26'611.4
2018-Feb-18 13:30N 33°39' W 121°33'1711.4
2018-Feb-18 12:02N 33°39' W 121°53'1111.7
2018-Feb-18 11:04N 33°39' W 122°07'211.3
2018-Feb-18 10:53N 33°39' W 122°09'1111.6
2018-Feb-18 09:57N 33°39' W 122°23'2412.4
2018-Feb-18 08:03N 33°40' W 122°51'2414.3
2018-Feb-18 06:23N 33°40' W 123°20'  
Track history (hours):
 
Tides and Currents Weather Stations Pressure Air Temp Water Temp Dewpoint Dewpoint Depression Visibility Wind Speed Wind Dir Waves Ship Positions

Venus Spirit

Last reported at 2018-Feb-20 13:05 UTC. Time now 2018-Feb-21 07:43 UTC.
Position N 33°38' W 121°17'.

Length 183 m; draft 7.7 m.

Type: Cargo ship. MMSI: 636015032.

Date/timePositionNaut miles runAvg speedWind from/ knotsBaromVisibWave heightAir tempDewpointWater temp
2018-Feb-20 13:05N 33°38' W 121°17'115.6
2018-Feb-20 12:59N 33°38' W 121°15'715.2
2018-Feb-20 12:30N 33°38' W 121°06'815.1
2018-Feb-20 12:00N 33°38' W 120°57'815.4
2018-Feb-20 11:30N 33°38' W 120°48'815.7
2018-Feb-20 11:00N 33°38' W 120°38'815.9
2018-Feb-20 10:30N 33°38' W 120°29'816.2
2018-Feb-20 10:00N 33°38' W 120°19'816.3
2018-Feb-20 09:30N 33°38' W 120°09'917.8
2018-Feb-20 09:00N 33°38' W 119°58'918.2
2018-Feb-20 08:30N 33°38' W 119°47'918.5
2018-Feb-20 08:00N 33°38' W 119°36'918.4
2018-Feb-20 07:30N 33°38' W 119°25'917.1
2018-Feb-20 07:01N 33°38' W 119°15'815.6
2018-Feb-20 06:30N 33°38' W 119°06'611.5
2018-Feb-20 06:00N 33°39' W 118°59'611.5
2018-Feb-20 05:30N 33°38' W 118°52'611.3
2018-Feb-20 05:00N 33°38' W 118°45'611.3
2018-Feb-20 04:30N 33°38' W 118°38'1910.5
2018-Feb-20 02:43N 33°40' W 118°16'2 9.0
2018-Feb-20 02:30N 33°42' W 118°15'3 6.0
2018-Feb-20 02:00N 33°44' W 118°17'2 3.9
2018-Feb-20 01:30N 33°46' W 118°15'0 0.0
2018-Feb-20 01:00N 33°46' W 118°15'0 0.0
2018-Feb-20 00:30N 33°46' W 118°15'0 0.0
2018-Feb-20 00:00N 33°46' W 118°15'0 0.0
2018-Feb-19 23:30N 33°46' W 118°15'0 0.0
2018-Feb-19 23:00N 33°46' W 118°15'0 0.0
2018-Feb-19 22:30N 33°46' W 118°15'0 0.0
2018-Feb-19 22:00N 33°46' W 118°15'0 0.0
2018-Feb-19 21:24N 33°46' W 118°15'0 0.0
2018-Feb-19 21:00N 33°46' W 118°15'0 0.0
2018-Feb-19 20:30N 33°46' W 118°15'0 0.0
2018-Feb-19 20:00N 33°46' W 118°15'0 0.0
2018-Feb-19 19:30N 33°46' W 118°15'0 0.0
2018-Feb-19 19:00N 33°46' W 118°15'0 0.0
2018-Feb-19 18:30N 33°46' W 118°15'0 0.0
2018-Feb-19 18:00N 33°46' W 118°15'0 0.0
2018-Feb-19 17:30N 33°46' W 118°15'0 0.0
2018-Feb-19 17:00N 33°46' W 118°15'0 0.0
2018-Feb-19 16:30N 33°46' W 118°15'0 0.0
2018-Feb-19 16:00N 33°46' W 118°15'0 0.0
2018-Feb-19 15:30N 33°46' W 118°15'0 0.0
2018-Feb-19 15:00N 33°46' W 118°15'0 0.0
2018-Feb-19 14:30N 33°46' W 118°15'0 0.0
2018-Feb-19 14:00N 33°46' W 118°15'0 0.0
2018-Feb-19 13:30N 33°46' W 118°15'0 0.0
2018-Feb-19 13:00N 33°46' W 118°15'0 0.0
2018-Feb-19 12:30N 33°46' W 118°15'0 0.0
2018-Feb-19 12:00N 33°46' W 118°15'0 0.0
2018-Feb-19 11:30N 33°46' W 118°15'0 0.0
2018-Feb-19 11:00N 33°46' W 118°15'0 0.0
2018-Feb-19 10:30N 33°46' W 118°15'0 0.0
2018-Feb-19 10:00N 33°46' W 118°15'0 0.0
2018-Feb-19 09:30N 33°46' W 118°15'0 0.0
2018-Feb-19 09:00N 33°46' W 118°15'0 0.0
2018-Feb-19 08:24N 33°46' W 118°15'0 0.0
2018-Feb-19 08:00N 33°46' W 118°15'0 0.0
2018-Feb-19 07:27N 33°46' W 118°15'0 0.0
2018-Feb-19 07:00N 33°46' W 118°15'0 0.0
2018-Feb-19 06:30N 33°46' W 118°15'0 0.5
2018-Feb-19 06:01N 33°46' W 118°15'2 3.6
2018-Feb-19 05:30N 33°44' W 118°17'3 5.6
2018-Feb-19 05:00N 33°42' W 118°14'10 7.1
2018-Feb-19 03:39N 33°36' W 118°24'211.7
2018-Feb-19 03:30N 33°36' W 118°26'611.5
2018-Feb-19 03:00N 33°36' W 118°33'510.9
2018-Feb-19 02:30N 33°37' W 118°39'510.9
2018-Feb-19 02:00N 33°37' W 118°46'511.0
2018-Feb-19 01:30N 33°37' W 118°52'611.2
2018-Feb-19 01:00N 33°37' W 118°59'611.5
2018-Feb-19 00:30N 33°37' W 119°06'611.6
2018-Feb-19 00:00N 33°37' W 119°13'611.7
2018-Feb-18 23:30N 33°37' W 119°20'611.6
2018-Feb-18 23:00N 33°37' W 119°27'611.2
2018-Feb-18 22:29N 33°37' W 119°34'510.9
2018-Feb-18 22:00N 33°37' W 119°40'510.3
2018-Feb-18 21:29N 33°37' W 119°47'510.8
2018-Feb-18 20:59N 33°37' W 119°53'511.3
2018-Feb-18 20:30N 33°38' W 119°60'510.8
2018-Feb-18 20:00N 33°37' W 120°06'611.1
2018-Feb-18 19:30N 33°37' W 120°13'611.4
2018-Feb-18 18:59N 33°37' W 120°20'611.4
2018-Feb-18 18:30N 33°37' W 120°26'611.4
2018-Feb-18 18:00N 33°38' W 120°33'611.0
2018-Feb-18 17:30N 33°38' W 120°40'611.4
2018-Feb-18 17:00N 33°39' W 120°47'5 9.5
2018-Feb-18 16:30N 33°38' W 120°52'4 8.7
2018-Feb-18 16:00N 33°38' W 120°58'611.6
2018-Feb-18 15:30N 33°38' W 121°05'712.4
2018-Feb-18 14:59N 33°38' W 121°12'612.4
2018-Feb-18 14:30N 33°38' W 121°19'611.6
2018-Feb-18 14:00N 33°39' W 121°26'611.4
2018-Feb-18 13:30N 33°39' W 121°33'1711.4
2018-Feb-18 12:02N 33°39' W 121°53'1111.7
2018-Feb-18 11:04N 33°39' W 122°07'211.3
2018-Feb-18 10:53N 33°39' W 122°09'1111.6
2018-Feb-18 09:57N 33°39' W 122°23'2412.4
2018-Feb-18 08:03N 33°40' W 122°51'2414.3
2018-Feb-18 06:23N 33°40' W 123°20'  

Dump ship's entire track history